Accueil
METAR-TAF:

METAR-TAF

Aéroports :

Figari, France

Aéroport de Figari Sud Corse

latitude: 41-30N, longitude: 009-06E, altitude: 26 m

Observation

Le bulletin a été fait il y a 35 minutes, à 19:00 UTC
Vent 5 kt de sud/sud-ouest
Température 19°C
Humidité 83%
Pression 1017 hPa
Visibilité 10 km ou plus
pas de nuages en-dessous de 1500 mètres et pas de cumulonimbus.

METAR: LFKF 241900Z AUTO 20005KT CAVOK 19/16 Q1017 NOSIG

Heure: 21:35 (19:35 UTC)

Prévision

Le bulletin a été fait il y a 5 heures et 35 minutes, à 14:00 UTC
Prévision valable du 24 à 15 UTC au 25 à 15 UTC
Vent 12 kt de ouest/sud-ouest
Visibilité 10 km ou plus
pas de nuages en-dessous de 1500 mètres et pas de cumulonimbus.
Temporairement
du 24 à 15 UTC au 25 à 09 UTC
Vent 10 kt de ouest/sud-ouest avec des rafales jusqu'à 20 kt

TAF: LFKF 241400Z 2415/2515 24012KT CAVOK TEMPO 2415/2509 24010G20KT

Observations et prévisions météorologiques de plus de 4000 aéroports (messages METAR et TAF).

Les stations disponibles sont représentées par des disques jaunes et rouges sur la carte.

Passer la souris dessus pour voir le nom de la station.

Cliquer dessus pour voir les observations et prévisions météorologiques.

Pour changer de carte: cliquez sur les boutons verts avec une croix noire pour zoomer, sur le bouton vert avec un tiret pour effectuer un zoom arrière, ou sur les flèches vertes pour les cartes adjacentes.


METAR-TAF: